createdAt,value
2023-02-08T00:01:29.769Z,20.58
2023-02-08T00:03:58.368Z,20.98
2023-02-08T00:06:27.129Z,18.27
2023-02-08T00:08:55.617Z,20.83
2023-02-08T00:11:23.600Z,23.02
2023-02-08T00:13:51.740Z,19.85
2023-02-08T00:16:20.137Z,17.92
2023-02-08T00:18:48.378Z,19.98
2023-02-08T00:21:19.970Z,19.92
2023-02-08T00:23:49.021Z,21.70
2023-02-08T00:26:17.513Z,19.67
2023-02-08T00:28:47.416Z,18.80
2023-02-08T00:31:19.328Z,20.05
2023-02-08T00:33:47.193Z,20.08
2023-02-08T00:36:15.206Z,19.58
2023-02-08T00:38:43.204Z,19.05
2023-02-08T00:41:11.586Z,21.33
2023-02-08T00:43:40.273Z,19.63
2023-02-08T00:46:11.184Z,18.67
2023-02-08T00:48:39.239Z,17.13
2023-02-08T00:51:13.904Z,19.38
2023-02-08T00:53:46.074Z,19.77
2023-02-08T00:56:16.324Z,18.38
2023-02-08T00:58:45.317Z,19.42
2023-02-08T01:01:14.826Z,17.58
2023-02-08T01:03:44.925Z,20.27
2023-02-08T01:06:18.852Z,18.60
2023-02-08T01:08:48.110Z,17.13
2023-02-08T01:11:22.724Z,17.13
2023-02-08T01:13:57.253Z,21.85
2023-02-08T01:16:32.831Z,20.52
2023-02-08T01:19:03.731Z,19.08
2023-02-08T01:21:39.403Z,17.73
2023-02-08T01:24:08.032Z,21.33
2023-02-08T01:26:36.446Z,17.70
2023-02-08T01:29:07.196Z,18.85
2023-02-08T01:31:39.456Z,16.25
2023-02-08T01:34:09.052Z,19.65
2023-02-08T01:36:38.025Z,17.00
2023-02-08T01:39:07.646Z,16.55
2023-02-08T01:41:39.673Z,17.38
2023-02-08T01:44:08.187Z,17.70
2023-02-08T01:46:41.046Z,16.50
2023-02-08T01:49:34.797Z,17.27
2023-02-08T01:52:19.343Z,16.80
2023-02-08T01:55:20.552Z,16.63
2023-02-08T01:57:53.074Z,15.27
2023-02-08T02:00:24.651Z,15.70
2023-02-08T02:02:55.764Z,18.23
2023-02-08T02:08:00.221Z,15.27
2023-02-08T02:10:32.664Z,17.17
2023-02-08T02:13:13.100Z,17.20
2023-02-08T02:15:45.885Z,18.50
2023-02-08T02:18:31.170Z,20.17
2023-02-08T02:21:36.640Z,16.90
2023-02-08T02:24:39.093Z,15.13
2023-02-08T02:27:22.600Z,16.42
2023-02-08T02:30:26.655Z,14.45
2023-02-08T02:33:37.174Z,15.00
2023-02-08T02:36:51.691Z,16.40
2023-02-08T02:39:54.342Z,16.08
2023-02-08T02:43:18.136Z,15.98
2023-02-08T02:46:20.704Z,14.90
2023-02-08T02:49:04.018Z,14.48
2023-02-08T02:51:51.532Z,15.90
2023-02-08T02:54:33.449Z,16.17
2023-02-08T02:57:06.448Z,15.95
2023-02-08T02:59:36.587Z,14.68
2023-02-08T03:02:04.984Z,16.38
2023-02-08T03:04:32.710Z,15.82
2023-02-08T03:07:20.658Z,15.55
2023-02-08T03:10:14.590Z,17.30
2023-02-08T03:13:09.526Z,16.25
2023-02-08T03:15:59.475Z,14.13
2023-02-08T03:19:02.122Z,16.52
2023-02-08T03:22:12.740Z,19.10
2023-02-08T03:24:58.476Z,16.60
2023-02-08T03:27:44.858Z,18.15
2023-02-08T03:30:45.870Z,18.38
2023-02-08T03:33:21.076Z,18.70
2023-02-08T03:36:27.241Z,18.17
2023-02-08T03:38:56.015Z,17.13
2023-02-08T03:41:32.739Z,16.20
2023-02-08T03:44:09.567Z,15.27
2023-02-08T03:47:22.232Z,18.05
2023-02-08T03:49:53.576Z,17.15
2023-02-08T03:52:22.663Z,16.88
2023-02-08T03:55:05.012Z,21.50
2023-02-08T03:57:46.669Z,25.38
2023-02-08T04:00:18.492Z,38.83
2023-02-08T04:03:19.374Z,32.65
2023-02-08T04:05:47.927Z,28.60
2023-02-08T04:08:16.022Z,35.45
2023-02-08T04:10:43.910Z,47.25
2023-02-08T04:13:11.862Z,23.40
2023-02-08T04:15:39.685Z,22.58
2023-02-08T04:18:07.485Z,23.65
2023-02-08T04:20:35.355Z,37.47
2023-02-08T04:23:03.172Z,32.22
2023-02-08T04:25:31.047Z,25.85
2023-02-08T04:27:59.832Z,21.15
2023-02-08T04:30:27.740Z,22.30
2023-02-08T04:32:55.526Z,22.13
2023-02-08T04:35:23.215Z,20.90
2023-02-08T04:37:51.367Z,17.55
2023-02-08T04:40:19.161Z,15.73
2023-02-08T04:42:46.899Z,17.17
2023-02-08T04:45:14.769Z,15.60
2023-02-08T04:47:42.521Z,16.33
2023-02-08T04:50:10.487Z,17.33
2023-02-08T04:52:38.276Z,20.27
2023-02-08T04:55:06.700Z,20.10
2023-02-08T04:57:34.395Z,16.48
2023-02-08T05:00:02.380Z,19.42
2023-02-08T05:02:30.169Z,17.73
2023-02-08T05:04:57.977Z,17.55
2023-02-08T05:07:25.846Z,18.48
2023-02-08T05:09:53.953Z,16.80
2023-02-08T05:12:21.775Z,16.25
2023-02-08T05:14:49.879Z,16.02
2023-02-08T05:17:17.595Z,56.15
2023-02-08T05:19:45.265Z,95.35
2023-02-08T05:22:12.956Z,61.08
2023-02-08T05:24:40.706Z,36.25
2023-02-08T05:27:08.463Z,87.60
2023-02-08T05:29:36.180Z,134.77
2023-02-08T05:32:04.227Z,100.70
2023-02-08T05:34:32.095Z,42.75
2023-02-08T05:37:00.046Z,28.08
2023-02-08T05:39:27.765Z,20.05
2023-02-08T05:41:55.638Z,17.30
2023-02-08T05:44:23.304Z,19.77
2023-02-08T05:46:51.337Z,24.90
2023-02-08T05:49:19.094Z,25.77
2023-02-08T05:51:46.838Z,33.60
2023-02-08T05:54:14.779Z,29.70
2023-02-08T05:56:42.807Z,26.95
2023-02-08T05:59:11.295Z,24.00
2023-02-08T06:01:39.191Z,19.02
2023-02-08T06:04:07.172Z,17.67
2023-02-08T06:06:34.939Z,17.65
2023-02-08T06:09:03.112Z,16.50
2023-02-08T06:11:30.944Z,17.13
2023-02-08T06:13:58.691Z,18.73
2023-02-08T06:16:27.244Z,18.38
2023-02-08T06:18:55.042Z,20.17
2023-02-08T06:21:24.459Z,21.13
2023-02-08T06:23:52.437Z,25.58
2023-02-08T06:26:20.456Z,23.50
2023-02-08T06:28:48.156Z,29.23
2023-02-08T06:31:15.848Z,24.15
2023-02-08T06:33:43.599Z,27.00
2023-02-08T06:36:11.270Z,24.38
2023-02-08T06:38:39.032Z,23.25
2023-02-08T06:41:06.762Z,24.95
2023-02-08T06:43:34.484Z,28.58
2023-02-08T06:46:04.939Z,35.10
2023-02-08T06:48:32.903Z,25.48
2023-02-08T06:51:01.012Z,26.60
2023-02-08T06:53:29.385Z,26.02
2023-02-08T06:55:57.410Z,20.30
2023-02-08T06:58:25.183Z,22.42
2023-02-08T07:00:53.180Z,22.60
2023-02-08T07:03:22.481Z,28.20
2023-02-08T07:06:04.195Z,25.80
2023-02-08T07:08:35.920Z,25.08
2023-02-08T07:11:12.098Z,24.85
2023-02-08T07:13:40.417Z,27.77
2023-02-08T07:16:10.189Z,25.45
2023-02-08T07:18:38.053Z,23.30
2023-02-08T07:21:06.320Z,27.75
2023-02-08T07:23:34.227Z,26.88
2023-02-08T07:26:11.041Z,31.98
2023-02-08T07:28:38.997Z,30.50
2023-02-08T07:31:09.743Z,24.90
2023-02-08T07:33:38.559Z,37.72
2023-02-08T07:36:08.003Z,21.05
2023-02-08T07:38:36.896Z,21.60
2023-02-08T07:41:08.511Z,21.73
2023-02-08T07:43:38.740Z,20.58
2023-02-08T07:46:10.326Z,23.02
2023-02-08T07:51:09.701Z,21.83
2023-02-08T07:53:38.129Z,23.30
2023-02-08T07:56:06.584Z,22.00
2023-02-08T07:58:34.258Z,23.77
2023-02-08T08:01:15.842Z,41.15
2023-02-08T08:03:51.222Z,23.55
2023-02-08T08:06:23.291Z,24.27
2023-02-08T08:08:51.598Z,24.00
2023-02-08T08:11:21.234Z,23.42
2023-02-08T08:13:50.224Z,22.92
2023-02-08T08:16:18.971Z,22.17
2023-02-08T08:18:48.303Z,19.60
2023-02-08T08:21:16.748Z,22.77
2023-02-08T08:23:44.818Z,20.50
2023-02-08T08:26:21.450Z,23.48
2023-02-08T08:28:49.662Z,19.55
2023-02-08T08:31:21.338Z,21.48
2023-02-08T08:33:49.712Z,20.45
2023-02-08T08:36:17.791Z,23.40
2023-02-08T08:38:45.570Z,21.33
2023-02-08T08:41:17.796Z,21.65
2023-02-08T08:43:45.735Z,23.15
2023-02-08T08:46:15.004Z,20.95
2023-02-08T08:48:42.927Z,20.60
2023-02-08T08:51:35.125Z,24.15
2023-02-08T08:54:06.581Z,20.38
2023-02-08T08:59:02.529Z,22.13
2023-02-08T09:01:33.611Z,25.65
2023-02-08T09:04:02.309Z,21.48
2023-02-08T09:06:30.355Z,20.58
2023-02-08T09:08:58.185Z,20.52
2023-02-08T09:11:25.944Z,19.17
2023-02-08T09:13:56.228Z,19.63
2023-02-08T09:16:25.422Z,19.67
2023-02-08T09:18:53.273Z,19.50
2023-02-08T09:21:26.523Z,19.38
2023-02-08T09:23:54.552Z,17.95
2023-02-08T09:26:23.418Z,17.67
2023-02-08T09:28:51.228Z,27.30
2023-02-08T09:31:33.046Z,19.20
2023-02-08T09:34:01.846Z,22.63
2023-02-08T09:36:34.542Z,22.67
2023-02-08T09:39:14.295Z,18.88
2023-02-08T09:42:00.502Z,17.95
2023-02-08T09:45:04.629Z,17.13
2023-02-08T09:47:36.497Z,17.30
2023-02-08T09:50:42.950Z,18.42
2023-02-08T09:53:30.947Z,17.55
2023-02-08T09:56:06.967Z,17.48
2023-02-08T09:58:49.732Z,16.95
2023-02-08T10:01:36.094Z,17.90
2023-02-08T10:04:30.066Z,14.95
2023-02-08T10:06:57.890Z,18.92
2023-02-08T10:09:27.584Z,16.38
2023-02-08T10:12:14.192Z,15.50
2023-02-08T10:14:59.864Z,15.82
2023-02-08T10:17:58.256Z,19.30
2023-02-08T10:21:14.080Z,17.33
2023-02-08T10:24:03.507Z,19.15
2023-02-08T10:26:44.934Z,16.15
2023-02-08T10:32:35.315Z,14.93
2023-02-08T10:35:11.129Z,14.88
2023-02-08T10:37:43.602Z,17.65
2023-02-08T10:40:31.214Z,16.02
2023-02-08T10:43:31.644Z,16.27
2023-02-08T10:46:23.078Z,15.93
2023-02-08T10:49:15.025Z,16.38
2023-02-08T10:51:43.087Z,16.23
2023-02-08T10:54:13.887Z,16.10
2023-02-08T10:56:57.467Z,17.63
2023-02-08T10:59:59.203Z,16.85
2023-02-08T11:02:33.049Z,18.13
2023-02-08T11:05:07.710Z,16.05
2023-02-08T11:07:37.121Z,16.40
2023-02-08T11:10:19.897Z,19.08
2023-02-08T11:13:06.876Z,16.02
2023-02-08T11:15:40.054Z,16.13
2023-02-08T11:18:49.213Z,16.17
2023-02-08T11:21:34.660Z,16.00
2023-02-08T11:24:35.950Z,16.55
2023-02-08T11:27:40.514Z,16.20
2023-02-08T11:30:14.589Z,15.70
2023-02-08T11:32:46.063Z,22.42
2023-02-08T11:35:26.497Z,14.05
2023-02-08T11:37:58.820Z,15.43
2023-02-08T11:40:37.920Z,15.07
2023-02-08T11:43:06.082Z,17.70
2023-02-08T11:45:36.804Z,19.95
2023-02-08T11:48:07.259Z,12.17
2023-02-08T11:50:38.414Z,18.13
2023-02-08T11:53:27.893Z,19.00
2023-02-08T11:56:15.732Z,17.48
2023-02-08T11:59:22.598Z,14.77
2023-02-08T12:01:50.609Z,15.10
2023-02-08T12:04:18.639Z,13.45
2023-02-08T12:07:17.499Z,14.57
2023-02-08T12:10:12.508Z,19.40
2023-02-08T12:13:01.776Z,15.30
2023-02-08T12:16:01.123Z,14.80
2023-02-08T12:18:50.763Z,16.25
2023-02-08T12:21:27.206Z,15.40
2023-02-08T12:24:49.399Z,15.48
2023-02-08T12:27:27.571Z,14.55
2023-02-08T12:30:29.694Z,14.73
2023-02-08T12:33:43.727Z,13.50
2023-02-08T12:36:45.781Z,13.07
2023-02-08T12:42:27.315Z,14.85
2023-02-08T12:45:17.503Z,17.20
2023-02-08T12:48:12.874Z,14.03
2023-02-08T12:51:00.334Z,13.98
2023-02-08T12:53:35.040Z,13.25
2023-02-08T12:56:12.067Z,16.30
2023-02-08T12:59:01.968Z,14.63
2023-02-08T13:01:47.273Z,15.82
2023-02-08T13:04:26.149Z,20.27
2023-02-08T13:06:59.207Z,12.75
2023-02-08T13:09:35.266Z,14.07
2023-02-08T13:12:20.778Z,13.32
2023-02-08T13:15:03.300Z,12.82
2023-02-08T13:17:54.423Z,12.13
2023-02-08T13:20:47.805Z,7.90
2023-02-08T13:23:52.052Z,10.38
2023-02-08T13:26:33.403Z,13.90
2023-02-08T13:29:03.239Z,11.93
2023-02-08T13:31:39.372Z,11.35
2023-02-08T13:34:31.085Z,17.95
2023-02-08T13:37:08.844Z,13.45
2023-02-08T13:39:44.171Z,13.00
2023-02-08T13:42:33.863Z,12.13
2023-02-08T13:45:02.906Z,12.10
2023-02-08T13:47:45.888Z,11.65
2023-02-08T13:50:51.134Z,13.77
2023-02-08T13:53:39.654Z,12.32
2023-02-08T13:56:13.001Z,9.50
2023-02-08T13:58:49.965Z,11.73
2023-02-08T14:01:19.725Z,11.85
2023-02-08T14:04:12.227Z,11.93
2023-02-08T14:07:00.156Z,12.00
2023-02-08T14:10:01.809Z,9.75
2023-02-08T14:13:08.449Z,10.98
2023-02-08T14:15:40.085Z,10.50
2023-02-08T14:18:26.966Z,10.57
2023-02-08T14:21:05.971Z,9.90
2023-02-08T14:23:40.200Z,10.02
2023-02-08T14:26:24.013Z,9.65
2023-02-08T14:28:58.737Z,10.63
2023-02-08T14:31:43.232Z,10.63
2023-02-08T14:34:38.154Z,8.05
2023-02-08T14:37:18.745Z,8.60
2023-02-08T14:39:50.533Z,8.63
2023-02-08T14:43:04.616Z,10.93
2023-02-08T14:45:39.935Z,9.13
2023-02-08T14:48:48.953Z,8.68
2023-02-08T14:51:32.197Z,8.85
2023-02-08T14:54:35.443Z,8.23
2023-02-08T14:57:36.637Z,8.75
2023-02-08T15:00:21.028Z,8.13
2023-02-08T15:02:52.850Z,7.72
2023-02-08T15:05:30.271Z,8.75
2023-02-08T15:08:00.757Z,8.55
2023-02-08T15:10:30.342Z,7.60
2023-02-08T15:13:03.891Z,7.70
2023-02-08T15:15:39.502Z,6.25
2023-02-08T15:18:20.660Z,7.45
2023-02-08T15:21:05.514Z,8.10
2023-02-08T15:23:33.671Z,9.77
2023-02-08T15:26:22.051Z,9.05
2023-02-08T15:28:50.067Z,8.20
2023-02-08T15:31:23.189Z,9.73
2023-02-08T15:44:24.897Z,7.70
2023-02-08T15:49:41.458Z,8.15
2023-02-08T15:52:17.692Z,10.10
2023-02-08T15:54:46.758Z,7.65
2023-02-08T15:57:40.798Z,11.70
2023-02-08T16:00:21.281Z,8.80
2023-02-08T16:03:00.730Z,10.60
2023-02-08T16:05:33.671Z,9.60
2023-02-08T16:08:03.173Z,7.80
2023-02-08T16:10:42.700Z,12.25
2023-02-08T16:13:20.713Z,8.73
2023-02-08T16:16:07.260Z,10.27
2023-02-08T16:18:57.224Z,10.98
2023-02-08T16:21:24.854Z,12.38
2023-02-08T16:24:05.565Z,14.43
2023-02-08T16:26:56.241Z,8.10
2023-02-08T16:29:31.239Z,11.43
2023-02-08T16:32:05.100Z,11.65
2023-02-08T16:34:39.602Z,13.20
2023-02-08T16:37:32.687Z,12.77
2023-02-08T16:40:41.670Z,11.32
2023-02-08T16:43:20.498Z,11.23
2023-02-08T16:46:11.087Z,10.82
2023-02-08T16:48:55.044Z,12.95
2023-02-08T16:51:29.663Z,12.32
2023-02-08T16:54:09.612Z,11.35
2023-02-08T16:56:39.423Z,13.30
2023-02-08T16:59:08.037Z,12.38
2023-02-08T17:01:36.282Z,11.88
2023-02-08T17:04:04.567Z,16.85
2023-02-08T17:06:36.067Z,11.95
2023-02-08T17:11:33.312Z,11.43
2023-02-08T17:14:01.201Z,13.95
2023-02-08T17:16:31.272Z,13.95
2023-02-08T17:19:00.701Z,12.60
2023-02-08T17:21:29.467Z,12.75
2023-02-08T17:23:58.167Z,14.52
2023-02-08T17:26:32.361Z,15.90
2023-02-08T17:29:00.470Z,19.55
2023-02-08T17:31:29.623Z,15.23
2023-02-08T17:34:07.118Z,13.15
2023-02-08T17:36:37.019Z,15.25
2023-02-08T17:39:06.617Z,14.68
2023-02-08T17:41:34.555Z,15.82
2023-02-08T17:44:02.546Z,12.60
2023-02-08T17:46:30.740Z,12.77
2023-02-08T17:49:01.517Z,12.10
2023-02-08T17:51:29.502Z,11.10
2023-02-08T17:53:57.397Z,15.55
2023-02-08T17:56:28.792Z,15.43
2023-02-08T17:58:56.549Z,12.93
2023-02-08T18:01:26.869Z,15.00
2023-02-08T18:03:54.803Z,23.15
2023-02-08T18:06:24.991Z,21.45
2023-02-08T18:08:54.827Z,18.00
2023-02-08T18:11:23.908Z,20.85
2023-02-08T18:13:53.861Z,24.48
2023-02-08T18:16:26.312Z,31.95
2023-02-08T18:18:59.267Z,24.58
2023-02-08T18:21:27.530Z,19.48
2023-02-08T18:23:55.684Z,23.83
2023-02-08T18:26:25.221Z,23.52
2023-02-08T18:28:53.804Z,21.77
2023-02-08T18:31:22.420Z,23.33
2023-02-08T18:33:51.245Z,24.10
2023-02-08T18:36:20.937Z,28.30
2023-02-08T18:38:52.428Z,22.40
2023-02-08T18:41:25.362Z,22.83
2023-02-08T18:43:56.127Z,24.33
2023-02-08T18:46:28.037Z,23.63
2023-02-08T18:48:56.226Z,29.33
2023-02-08T18:51:26.446Z,26.67
2023-02-08T18:53:56.055Z,24.55
2023-02-08T18:56:27.215Z,22.92
2023-02-08T18:58:58.012Z,24.35
2023-02-08T19:01:25.950Z,28.57
2023-02-08T19:03:54.055Z,27.83
2023-02-08T19:06:25.491Z,25.42
2023-02-08T19:08:56.641Z,22.85
2023-02-08T19:11:31.269Z,21.55
2023-02-08T19:14:02.131Z,19.52
2023-02-08T19:16:32.427Z,17.85
2023-02-08T19:19:01.627Z,16.30
2023-02-08T19:21:30.739Z,18.05
2023-02-08T19:24:00.550Z,17.13
2023-02-08T19:26:40.043Z,20.75
2023-02-08T19:29:13.533Z,19.70
2023-02-08T19:31:42.454Z,18.35
2023-02-08T19:34:11.925Z,24.63
2023-02-08T19:36:52.996Z,23.30
2023-02-08T19:39:24.907Z,22.92
2023-02-08T19:41:54.104Z,20.58
2023-02-08T19:44:22.700Z,20.55
2023-02-08T19:46:55.130Z,24.02
2023-02-08T19:49:25.799Z,21.75
2023-02-08T19:51:54.098Z,22.75
2023-02-08T19:54:22.088Z,22.73
2023-02-08T19:56:52.149Z,18.98
2023-02-08T19:59:28.099Z,21.65
2023-02-08T20:01:56.314Z,20.33
2023-02-08T20:04:24.632Z,21.42
2023-02-08T20:06:54.037Z,20.13
2023-02-08T20:09:24.463Z,19.38
2023-02-08T20:11:59.757Z,19.88
2023-02-08T20:14:32.821Z,18.88
2023-02-08T20:17:04.617Z,18.40
2023-02-08T20:19:37.309Z,19.35
2023-02-08T20:22:05.547Z,19.20
2023-02-08T20:24:33.426Z,19.10
2023-02-08T20:27:01.536Z,19.23
2023-02-08T20:29:29.790Z,19.55
2023-02-08T20:31:58.028Z,17.08
2023-02-08T20:34:26.012Z,17.33
2023-02-08T20:37:06.245Z,17.08
2023-02-08T20:39:36.198Z,15.75
2023-02-08T20:42:04.667Z,17.92
2023-02-08T20:44:32.675Z,19.13
2023-02-08T20:47:01.017Z,17.15
2023-02-08T20:49:30.740Z,19.65
2023-02-08T20:52:19.425Z,22.30
2023-02-08T20:54:47.844Z,21.90
2023-02-08T20:57:16.385Z,20.35
2023-02-08T20:59:46.096Z,19.92
2023-02-08T21:02:23.290Z,22.50
2023-02-08T21:04:51.166Z,24.40
2023-02-08T21:07:19.225Z,23.05
2023-02-08T21:09:47.277Z,21.23
2023-02-08T21:12:15.208Z,23.80
2023-02-08T21:14:44.547Z,17.77
2023-02-08T21:17:12.681Z,22.42
2023-02-08T21:19:40.490Z,19.85
2023-02-08T21:22:08.353Z,19.80
2023-02-08T21:24:36.198Z,17.60
2023-02-08T21:27:04.150Z,20.98
2023-02-08T21:29:32.815Z,20.75
2023-02-08T21:32:01.125Z,18.38
2023-02-08T21:34:29.172Z,19.05
2023-02-08T21:36:57.044Z,18.90
2023-02-08T21:39:24.763Z,20.25
2023-02-08T21:41:53.087Z,20.70
2023-02-08T21:44:21.141Z,21.48
2023-02-08T21:46:48.937Z,19.92
2023-02-08T21:49:35.336Z,21.83
2023-02-08T21:52:21.977Z,18.95
2023-02-08T21:54:53.491Z,17.50
2023-02-08T21:57:25.796Z,18.83
2023-02-08T21:59:58.436Z,19.02
2023-02-08T22:02:29.941Z,17.33
2023-02-08T22:05:20.584Z,19.92
2023-02-08T22:07:56.794Z,18.60
2023-02-08T22:10:28.403Z,17.63
2023-02-08T22:12:57.370Z,19.45
2023-02-08T22:15:29.023Z,19.60
2023-02-08T22:18:00.726Z,19.40
2023-02-08T22:20:29.757Z,17.42
2023-02-08T22:22:57.895Z,19.60
2023-02-08T22:25:25.862Z,16.92
2023-02-08T22:27:53.799Z,17.60
2023-02-08T22:30:25.029Z,19.63
2023-02-08T22:32:53.366Z,20.35
2023-02-08T22:35:21.500Z,17.67
2023-02-08T22:37:49.361Z,17.02
2023-02-08T22:40:17.321Z,19.50
2023-02-08T22:42:45.225Z,18.27
2023-02-08T22:45:13.144Z,17.38
2023-02-08T22:47:40.944Z,20.20
2023-02-08T22:50:09.941Z,17.35
2023-02-08T22:52:38.029Z,17.75
2023-02-08T22:55:06.546Z,18.48
2023-02-08T22:57:37.445Z,19.77
2023-02-08T23:00:09.716Z,18.30
2023-02-08T23:02:37.563Z,17.90
2023-02-08T23:05:05.826Z,17.63
2023-02-08T23:07:33.937Z,18.52
2023-02-08T23:10:01.733Z,18.17
2023-02-08T23:12:30.746Z,18.02
2023-02-08T23:14:58.565Z,18.80
2023-02-08T23:17:26.576Z,18.38
2023-02-08T23:19:54.367Z,21.30
2023-02-08T23:22:22.252Z,18.15
2023-02-08T23:24:50.002Z,20.05
2023-02-08T23:27:17.955Z,19.77
2023-02-08T23:29:45.830Z,17.10
2023-02-08T23:32:13.706Z,19.45
2023-02-08T23:34:41.464Z,18.60
2023-02-08T23:37:09.391Z,19.35
2023-02-08T23:39:37.155Z,18.35
2023-02-08T23:42:05.717Z,20.45
2023-02-08T23:44:33.436Z,18.35
2023-02-08T23:47:01.244Z,17.55
2023-02-08T23:49:28.972Z,19.20
2023-02-08T23:51:56.707Z,21.75
2023-02-08T23:54:24.432Z,19.27
2023-02-08T23:56:52.097Z,19.40
2023-02-08T23:59:19.824Z,18.92
